Time,TemperatureF,DewpointF,PressureIn,WindDirection,WindDirectionDegrees,WindSpeedMPH,WindSpeedGustMPH,Humidity,HourlyPrecipIn,Conditions,Clouds,dailyrainin,SoftwareType,DateUTC
2013-08-04 00:01:00,83.8,76.6,29.91,WNW,292,0.0,0.0,79,0.00,,---,0.00,VWS V14.00,2013-08-04 04:01:00,
2013-08-04 00:06:00,83.8,76.6,29.91,WSW,248,3.3,3.3,79,0.00,,---,0.00,VWS V14.00,2013-08-04 04:06:00,
2013-08-04 00:11:00,84.0,76.4,29.91,WNW,292,0.0,0.0,78,0.00,,---,0.00,VWS V14.00,2013-08-04 04:11:00,
2013-08-04 00:16:00,84.0,76.4,29.91,NW,315,2.0,2.0,78,0.00,,---,0.00,VWS V14.00,2013-08-04 04:16:00,
2013-08-04 00:21:00,84.0,76.4,29.91,NW,315,1.7,1.7,78,0.00,,---,0.00,VWS V14.00,2013-08-04 04:21:00,
2013-08-04 00:26:00,84.0,76.0,29.91,NW,315,0.0,0.0,77,0.00,,---,0.00,VWS V14.00,2013-08-04 04:26:00,
2013-08-04 00:31:00,83.8,75.8,29.91,WNW,292,0.0,0.0,77,0.00,,---,0.00,VWS V14.00,2013-08-04 04:31:00,
2013-08-04 00:36:00,83.8,75.8,29.90,SW,225,0.0,0.0,77,0.00,,---,0.00,VWS V14.00,2013-08-04 04:36:00,
2013-08-04 00:41:00,83.8,76.2,29.90,WNW,292,3.1,3.1,78,0.00,,---,0.00,VWS V14.00,2013-08-04 04:41:00,
2013-08-04 00:45:00,83.6,76.0,29.90,West,270,0.0,0.0,78,0.00,,---,0.00,VWS V14.00,2013-08-04 04:45:00,
2013-08-04 00:50:00,83.6,76.0,29.90,WNW,292,0.0,0.0,78,0.00,,---,0.00,VWS V14.00,2013-08-04 04:50:00,
2013-08-04 00:56:00,83.4,75.8,29.90,West,270,0.0,0.0,78,0.00,,---,0.00,VWS V14.00,2013-08-04 04:56:00,
2013-08-04 01:01:00,83.6,76.4,29.90,West,270,0.0,0.0,79,0.00,,---,0.00,VWS V14.00,2013-08-04 05:01:00,
2013-08-04 01:06:00,83.6,76.4,29.90,West,270,0.0,0.0,79,0.00,,---,0.00,VWS V14.00,2013-08-04 05:06:00,
2013-08-04 01:11:00,83.4,75.8,29.90,SSW,202,0.0,0.0,78,0.00,,---,0.00,VWS V14.00,2013-08-04 05:11:00,
2013-08-04 01:16:00,83.4,76.2,29.90,WNW,292,0.0,0.0,79,0.00,,---,0.00,VWS V14.00,2013-08-04 05:16:00,
2013-08-04 01:21:00,83.3,76.1,29.90,WNW,292,0.0,0.0,79,0.00,,---,0.00,VWS V14.00,2013-08-04 05:21:00,
2013-08-04 01:26:00,83.3,76.1,29.89,WNW,292,0.0,0.0,79,0.00,,---,0.00,VWS V14.00,2013-08-04 05:26:00,
2013-08-04 01:31:00,83.3,76.1,29.89,WNW,292,0.0,0.0,79,0.00,,---,0.00,VWS V14.00,2013-08-04 05:31:00,
2013-08-04 01:36:00,83.1,75.9,29.88,WNW,292,0.0,0.0,79,0.00,,---,0.00,VWS V14.00,2013-08-04 05:36:00,
2013-08-04 01:41:00,83.1,75.9,29.88,NW,315,0.0,0.0,79,0.00,,---,0.00,VWS V14.00,2013-08-04 05:41:00,
2013-08-04 01:46:00,83.1,75.9,29.88,WSW,248,0.0,0.0,79,0.00,,---,0.00,VWS V14.00,2013-08-04 05:46:00,
2013-08-04 01:51:00,83.1,75.9,29.88,WSW,248,0.0,0.0,79,0.00,,---,0.00,VWS V14.00,2013-08-04 05:51:00,
2013-08-04 01:56:00,82.9,75.7,29.88,WSW,248,0.0,0.0,79,0.00,,---,0.00,VWS V14.00,2013-08-04 05:56:00,
2013-08-04 02:00:00,82.9,75.7,29.88,WSW,248,0.0,0.0,79,0.00,,---,0.00,VWS V14.00,2013-08-04 06:00:00,
2013-08-04 02:05:00,82.9,75.7,29.88,WNW,292,0.0,0.0,79,0.00,,---,0.00,VWS V14.00,2013-08-04 06:05:00,
2013-08-04 02:10:00,82.7,75.5,29.88,WNW,292,0.0,0.0,79,0.00,,---,0.00,VWS V14.00,2013-08-04 06:10:00,
2013-08-04 02:15:00,82.7,75.9,29.87,WNW,292,0.0,0.0,80,0.00,,---,0.00,VWS V14.00,2013-08-04 06:15:00,
2013-08-04 02:20:00,82.7,75.9,29.87,WNW,292,0.0,0.0,80,0.00,,---,0.00,VWS V14.00,2013-08-04 06:20:00,
2013-08-04 02:25:00,82.5,75.7,29.87,WNW,292,0.0,0.0,80,0.00,,---,0.00,VWS V14.00,2013-08-04 06:25:00,
2013-08-04 02:30:00,82.5,75.7,29.87,WNW,292,0.0,0.0,80,0.00,,---,0.00,VWS V14.00,2013-08-04 06:30:00,
2013-08-04 02:35:00,82.4,76.0,29.87,West,270,0.0,0.0,81,0.00,,---,0.00,VWS V14.00,2013-08-04 06:35:00,
2013-08-04 02:40:00,82.5,76.1,29.87,West,270,0.0,0.0,81,0.00,,---,0.00,VWS V14.00,2013-08-04 06:40:00,
2013-08-04 02:45:00,82.4,76.0,29.87,West,270,0.0,0.0,81,0.00,,---,0.00,VWS V14.00,2013-08-04 06:45:00,
2013-08-04 02:50:00,82.2,75.8,29.87,West,270,0.0,0.0,81,0.00,,---,0.00,VWS V14.00,2013-08-04 06:50:00,
2013-08-04 02:55:00,82.2,75.8,29.87,West,270,0.0,0.0,81,0.00,,---,0.00,VWS V14.00,2013-08-04 06:55:00,
2013-08-04 03:00:00,82.2,75.8,29.87,West,270,0.0,0.0,81,0.00,,---,0.00,VWS V14.00,2013-08-04 07:00:00,
2013-08-04 03:05:00,82.2,75.8,29.86,West,270,0.0,0.0,81,0.00,,---,0.00,VWS V14.00,2013-08-04 07:05:00,
2013-08-04 03:10:00,82.2,75.8,29.86,West,270,0.0,0.0,81,0.00,,---,0.00,VWS V14.00,2013-08-04 07:10:00,
2013-08-04 03:15:00,82.2,75.8,29.86,West,270,0.0,0.0,81,0.00,,---,0.00,VWS V14.00,2013-08-04 07:15:00,
2013-08-04 03:20:00,82.0,75.6,29.86,West,270,0.0,0.0,81,0.00,,---,0.00,VWS V14.00,2013-08-04 07:20:00,
2013-08-04 03:25:00,81.8,75.4,29.86,West,270,0.0,0.0,81,0.00,,---,0.00,VWS V14.00,2013-08-04 07:25:00,
2013-08-04 03:30:00,81.6,75.6,29.85,West,270,0.0,0.0,82,0.00,,---,0.00,VWS V14.00,2013-08-04 07:30:00,
2013-08-04 03:35:00,81.6,75.6,29.86,West,270,0.0,0.0,82,0.00,,---,0.00,VWS V14.00,2013-08-04 07:35:00,
2013-08-04 03:40:00,81.8,75.8,29.86,West,270,0.0,0.0,82,0.00,,---,0.00,VWS V14.00,2013-08-04 07:40:00,
2013-08-04 03:45:00,82.0,76.0,29.85,WNW,292,0.6,0.6,82,0.00,,---,0.00,VWS V14.00,2013-08-04 07:45:00,
2013-08-04 03:50:00,82.0,76.0,29.85,WNW,292,0.0,0.0,82,0.00,,---,0.00,VWS V14.00,2013-08-04 07:50:00,
2013-08-04 03:55:00,82.0,75.6,29.85,WNW,292,0.0,0.0,81,0.00,,---,0.00,VWS V14.00,2013-08-04 07:55:00,
2013-08-04 04:00:00,81.8,75.8,29.85,West,270,0.0,0.0,82,0.00,,---,0.00,VWS V14.00,2013-08-04 08:00:00,
2013-08-04 04:05:00,81.8,75.8,29.85,WNW,292,0.0,0.0,82,0.00,,---,0.00,VWS V14.00,2013-08-04 08:05:00,
2013-08-04 04:10:00,81.6,75.6,29.85,WNW,292,0.0,0.0,82,0.00,,---,0.00,VWS V14.00,2013-08-04 08:10:00,
2013-08-04 04:15:00,81.5,75.5,29.85,WNW,292,0.0,0.0,82,0.00,,---,0.00,VWS V14.00,2013-08-04 08:15:00,
2013-08-04 04:20:00,81.5,75.8,29.85,WNW,292,0.0,0.0,83,0.00,,---,0.00,VWS V14.00,2013-08-04 08:20:00,
2013-08-04 04:25:00,81.3,75.7,29.85,WNW,292,0.0,0.0,83,0.00,,---,0.00,VWS V14.00,2013-08-04 08:25:00,
2013-08-04 04:30:00,81.1,75.4,29.85,WNW,292,0.0,0.0,83,0.00,,---,0.00,VWS V14.00,2013-08-04 08:30:00,
2013-08-04 04:35:00,81.1,75.4,29.85,WNW,292,0.0,0.0,83,0.00,,---,0.00,VWS V14.00,2013-08-04 08:35:00,
2013-08-04 04:40:00,80.9,75.6,29.85,WNW,292,0.0,0.0,84,0.00,,---,0.00,VWS V14.00,2013-08-04 08:40:00,
2013-08-04 04:45:00,80.7,75.4,29.85,WNW,292,0.0,0.0,84,0.00,,---,0.00,VWS V14.00,2013-08-04 08:45:00,
2013-08-04 04:50:00,80.7,75.4,29.85,WNW,292,0.0,0.0,84,0.00,,---,0.00,VWS V14.00,2013-08-04 08:50:00,
2013-08-04 04:55:00,80.4,75.5,29.85,WNW,292,0.0,0.0,85,0.00,,---,0.00,VWS V14.00,2013-08-04 08:55:00,
2013-08-04 05:00:00,80.4,75.5,29.85,WNW,292,0.0,0.0,85,0.00,,---,0.00,VWS V14.00,2013-08-04 09:00:00,
2013-08-04 05:05:00,80.4,75.5,29.85,WNW,292,0.0,0.0,85,0.00,,---,0.00,VWS V14.00,2013-08-04 09:05:00,
2013-08-04 05:10:00,80.4,75.5,29.85,WNW,292,0.0,0.0,85,0.00,,---,0.00,VWS V14.00,2013-08-04 09:10:00,
2013-08-04 05:15:00,80.4,75.5,29.85,WNW,292,0.0,0.0,85,0.00,,---,0.00,VWS V14.00,2013-08-04 09:15:00,
2013-08-04 05:20:00,80.2,75.3,29.85,WNW,292,0.0,0.0,85,0.00,,---,0.00,VWS V14.00,2013-08-04 09:20:00,
2013-08-04 05:25:00,80.2,75.3,29.85,WNW,292,0.0,0.0,85,0.00,,---,0.00,VWS V14.00,2013-08-04 09:25:00,
2013-08-04 05:30:00,80.2,75.6,29.85,WNW,292,0.0,0.0,86,0.00,,---,0.00,VWS V14.00,2013-08-04 09:30:00,
2013-08-04 05:35:00,80.0,75.4,29.85,WNW,292,0.0,0.0,86,0.00,,---,0.00,VWS V14.00,2013-08-04 09:35:00,
2013-08-04 05:40:00,79.8,75.2,29.85,WNW,292,0.0,0.0,86,0.00,,---,0.00,VWS V14.00,2013-08-04 09:40:00,
2013-08-04 05:45:00,79.8,75.2,29.85,WNW,292,0.0,0.0,86,0.00,,---,0.00,VWS V14.00,2013-08-04 09:45:00,
2013-08-04 05:50:00,79.8,75.2,29.85,WNW,292,0.0,0.0,86,0.00,,---,0.00,VWS V14.00,2013-08-04 09:50:00,
2013-08-04 05:55:00,79.7,75.2,29.85,WNW,292,0.0,0.0,86,0.00,,---,0.00,VWS V14.00,2013-08-04 09:55:00,
2013-08-04 06:00:00,79.7,75.2,29.85,WNW,292,0.0,0.0,86,0.00,,---,0.00,VWS V14.00,2013-08-04 10:00:00,
2013-08-04 06:05:00,79.7,75.5,29.85,WNW,292,0.0,0.0,87,0.00,,---,0.00,VWS V14.00,2013-08-04 10:05:00,
2013-08-04 06:10:00,79.5,74.9,29.85,WNW,292,0.0,0.0,86,0.00,,---,0.00,VWS V14.00,2013-08-04 10:10:00,
2013-08-04 06:15:00,79.5,74.9,29.85,WNW,292,0.0,0.0,86,0.00,,---,0.00,VWS V14.00,2013-08-04 10:15:00,
2013-08-04 06:20:00,79.5,75.3,29.85,WNW,292,0.0,0.0,87,0.00,,---,0.00,VWS V14.00,2013-08-04 10:20:00,
2013-08-04 06:25:00,79.5,75.3,29.85,WNW,292,0.0,0.0,87,0.00,,---,0.00,VWS V14.00,2013-08-04 10:25:00,
2013-08-04 06:30:00,79.3,75.1,29.85,WNW,292,0.0,0.0,87,0.00,,---,0.00,VWS V14.00,2013-08-04 10:30:00,
2013-08-04 06:35:00,79.3,75.1,29.85,WNW,292,0.0,0.0,87,0.00,,---,0.00,VWS V14.00,2013-08-04 10:35:00,
2013-08-04 06:40:00,79.3,75.1,29.86,WNW,292,0.0,0.0,87,0.00,,---,0.00,VWS V14.00,2013-08-04 10:40:00,
2013-08-04 06:45:00,79.3,75.1,29.86,WNW,292,0.0,0.0,87,0.00,,---,0.00,VWS V14.00,2013-08-04 10:45:00,
2013-08-04 06:50:00,79.3,75.1,29.86,WNW,292,0.0,0.0,87,0.00,,---,0.00,VWS V14.00,2013-08-04 10:50:00,
2013-08-04 06:55:00,79.1,74.9,29.87,WNW,292,0.0,0.0,87,0.00,,---,0.00,VWS V14.00,2013-08-04 10:55:00,
2013-08-04 07:00:00,79.1,75.2,29.87,WNW,292,0.0,0.0,88,0.00,,---,0.00,VWS V14.00,2013-08-04 11:00:00,
2013-08-04 07:05:00,79.1,75.2,29.87,WNW,292,0.0,0.0,88,0.00,,---,0.00,VWS V14.00,2013-08-04 11:05:00,
2013-08-04 07:10:00,78.9,75.1,29.87,WNW,292,0.0,0.0,88,0.00,,---,0.00,VWS V14.00,2013-08-04 11:10:00,
2013-08-04 07:15:00,79.1,75.2,29.87,WNW,292,0.0,0.0,88,0.00,,---,0.00,VWS V14.00,2013-08-04 11:15:00,
2013-08-04 07:20:00,79.3,75.4,29.87,WNW,292,0.0,0.0,88,0.00,,---,0.00,VWS V14.00,2013-08-04 11:20:00,
2013-08-04 07:25:00,79.3,75.4,29.87,WNW,292,0.0,0.0,88,0.00,,---,0.00,VWS V14.00,2013-08-04 11:25:00,
2013-08-04 07:30:00,79.3,75.4,29.87,WNW,292,0.0,0.0,88,0.00,,---,0.00,VWS V14.00,2013-08-04 11:30:00,
2013-08-04 07:35:00,79.5,75.6,29.87,WNW,292,0.0,0.0,88,0.00,,---,0.00,VWS V14.00,2013-08-04 11:35:00,
2013-08-04 07:40:00,79.8,76.3,29.87,WNW,292,0.0,0.0,89,0.00,,---,0.00,VWS V14.00,2013-08-04 11:40:00,
2013-08-04 07:45:00,80.2,76.7,29.87,WNW,292,0.0,0.0,89,0.00,,---,0.00,VWS V14.00,2013-08-04 11:45:00,
2013-08-04 07:50:00,80.7,76.8,29.88,WNW,292,0.0,0.0,88,0.00,,---,0.00,VWS V14.00,2013-08-04 11:50:00,
2013-08-04 07:55:00,81.1,77.2,29.87,WNW,292,0.0,0.0,88,0.00,,---,0.00,VWS V14.00,2013-08-04 11:55:00,
2013-08-04 07:59:00,81.5,77.6,29.88,WNW,292,0.0,0.0,88,0.00,,---,0.00,VWS V14.00,2013-08-04 11:59:00,
2013-08-04 08:05:00,82.0,77.8,29.88,WNW,292,0.0,0.0,87,0.00,,---,0.00,VWS V14.00,2013-08-04 12:05:00,
2013-08-04 08:10:00,82.5,78.2,29.88,WNW,292,0.0,0.0,87,0.00,,---,0.00,VWS V14.00,2013-08-04 12:10:00,
2013-08-04 08:15:00,82.9,78.3,29.88,WNW,292,0.0,0.0,86,0.00,,---,0.00,VWS V14.00,2013-08-04 12:15:00,
2013-08-04 08:20:00,83.3,78.3,29.88,West,270,1.1,1.1,85,0.00,,---,0.00,VWS V14.00,2013-08-04 12:20:00,
2013-08-04 08:25:00,83.8,78.1,29.88,West,270,0.0,0.0,83,0.00,,---,0.00,VWS V14.00,2013-08-04 12:25:00,
2013-08-04 08:30:00,84.0,78.3,29.89,West,270,0.0,0.0,83,0.00,,---,0.00,VWS V14.00,2013-08-04 12:30:00,
2013-08-04 08:35:00,84.3,78.2,29.89,SW,225,0.0,0.0,82,0.00,,---,0.00,VWS V14.00,2013-08-04 12:35:00,
2013-08-04 08:40:00,84.5,78.4,29.88,WSW,248,0.0,0.0,82,0.00,,---,0.00,VWS V14.00,2013-08-04 12:40:00,
2013-08-04 08:45:00,84.7,78.2,29.89,West,270,0.0,0.0,81,0.00,,---,0.00,VWS V14.00,2013-08-04 12:45:00,
2013-08-04 08:50:00,84.7,77.8,29.89,NW,315,0.0,0.0,80,0.00,,---,0.00,VWS V14.00,2013-08-04 12:50:00,
2013-08-04 08:55:00,84.9,78.0,29.89,WNW,292,1.1,1.1,80,0.00,,---,0.00,VWS V14.00,2013-08-04 12:55:00,
2013-08-04 09:00:00,85.2,77.9,29.89,West,270,2.2,2.2,79,0.00,,---,0.00,VWS V14.00,2013-08-04 13:00:00,
2013-08-04 09:05:00,85.4,78.2,29.89,NW,315,1.5,1.5,79,0.00,,---,0.00,VWS V14.00,2013-08-04 13:05:00,
2013-08-04 09:10:00,85.6,78.0,29.89,West,270,0.0,0.0,78,0.00,,---,0.00,VWS V14.00,2013-08-04 13:10:00,
2013-08-04 09:15:00,85.8,78.2,29.89,SW,225,0.0,0.0,78,0.00,,---,0.00,VWS V14.00,2013-08-04 13:15:00,
2013-08-04 09:19:00,86.0,78.3,29.89,WNW,292,2.4,2.4,78,0.00,,---,0.00,VWS V14.00,2013-08-04 13:19:00,
2013-08-04 09:24:00,86.1,78.1,29.89,WNW,292,0.0,0.0,77,0.00,,---,0.00,VWS V14.00,2013-08-04 13:24:00,
2013-08-04 09:30:00,86.3,78.2,29.88,North,0,0.0,0.0,77,0.00,,---,0.00,VWS V14.00,2013-08-04 13:30:00,
2013-08-04 09:35:00,86.7,78.2,29.89,NW,315,2.4,2.4,76,0.00,,---,0.00,VWS V14.00,2013-08-04 13:35:00,
2013-08-04 09:40:00,86.7,78.2,29.89,WNW,292,3.8,3.8,76,0.00,,---,0.00,VWS V14.00,2013-08-04 13:40:00,
2013-08-04 09:45:00,-20.9,-26.3,29.89,NW,315,0.0,0.0,75,0.00,,---,0.00,VWS V14.00,2013-08-04 13:45:00,
2013-08-04 09:50:00,86.9,78.0,29.89,WNW,292,0.0,0.0,75,0.00,,---,0.00,VWS V14.00,2013-08-04 13:50:00,
2013-08-04 09:55:00,87.2,78.3,29.89,West,270,0.0,0.0,75,0.00,,---,0.00,VWS V14.00,2013-08-04 13:55:00,
2013-08-04 10:00:00,87.6,78.7,29.89,WNW,292,0.0,0.0,75,0.00,,---,0.00,VWS V14.00,2013-08-04 14:00:00,
2013-08-04 10:05:00,87.6,77.9,29.89,NW,315,4.0,4.0,73,0.00,,---,0.00,VWS V14.00,2013-08-04 14:05:00,
2013-08-04 10:10:00,87.6,78.3,29.89,West,270,0.0,0.0,74,0.00,,---,0.00,VWS V14.00,2013-08-04 14:10:00,
2013-08-04 10:14:00,87.8,78.1,29.89,West,270,6.0,6.0,73,0.00,,---,0.00,VWS V14.00,2013-08-04 14:14:00,
2013-08-04 10:20:00,88.1,78.4,29.89,SW,225,1.3,1.3,73,0.00,,---,0.00,VWS V14.00,2013-08-04 14:20:00,
2013-08-04 10:25:00,88.3,78.1,29.89,NW,315,0.0,0.0,72,0.00,,---,0.00,VWS V14.00,2013-08-04 14:25:00,
2013-08-04 10:30:00,88.1,77.9,29.89,WNW,292,6.0,6.0,72,0.00,,---,0.00,VWS V14.00,2013-08-04 14:30:00,
2013-08-04 10:35:00,88.3,78.1,29.90,West,270,0.0,0.0,72,0.00,,---,0.00,VWS V14.00,2013-08-04 14:35:00,
2013-08-04 10:40:00,88.5,77.5,29.89,WNW,292,0.0,0.0,70,0.00,,---,0.00,VWS V14.00,2013-08-04 14:40:00,
2013-08-04 10:45:00,88.5,78.3,29.89,West,270,3.1,3.1,72,0.00,,---,0.00,VWS V14.00,2013-08-04 14:45:00,
2013-08-04 10:49:00,88.3,77.3,29.90,NW,315,2.9,2.9,70,0.00,,---,0.00,VWS V14.00,2013-08-04 14:49:00,
2013-08-04 10:55:00,88.1,77.5,29.90,West,270,0.0,0.0,71,0.00,,---,0.00,VWS V14.00,2013-08-04 14:55:00,
2013-08-04 11:00:00,88.3,77.7,29.90,NW,315,4.2,4.2,71,0.00,,---,0.00,VWS V14.00,2013-08-04 15:00:00,
2013-08-04 11:04:00,88.8,77.8,29.90,WNW,292,2.9,2.9,70,0.00,,---,0.00,VWS V14.00,2013-08-04 15:04:00,
2013-08-04 11:10:00,89.2,78.1,29.90,West,270,1.1,1.1,70,0.00,,---,0.00,VWS V14.00,2013-08-04 15:10:00,
2013-08-04 11:15:00,89.4,78.3,29.90,WSW,248,1.7,1.7,70,0.00,,---,0.00,VWS V14.00,2013-08-04 15:15:00,
2013-08-04 11:20:00,89.7,78.6,29.90,WNW,292,0.8,0.8,70,0.00,,---,0.00,VWS V14.00,2013-08-04 15:20:00,
2013-08-04 11:24:00,89.7,78.2,29.90,WNW,292,4.2,4.2,69,0.00,,---,0.00,VWS V14.00,2013-08-04 15:24:00,
2013-08-04 11:29:00,89.7,77.7,29.90,West,270,2.2,2.2,68,0.00,,---,0.00,VWS V14.00,2013-08-04 15:29:00,
2013-08-04 11:34:00,89.4,77.4,29.90,WNW,292,2.9,2.9,68,0.00,,---,0.00,VWS V14.00,2013-08-04 15:34:00,
2013-08-04 11:39:00,89.7,77.7,29.89,WSW,248,2.6,2.6,68,0.00,,---,0.00,VWS V14.00,2013-08-04 15:39:00,
2013-08-04 11:44:00,89.9,77.9,29.89,West,270,0.8,0.8,68,0.00,,---,0.00,VWS V14.00,2013-08-04 15:44:00,
2013-08-04 11:49:00,90.1,77.7,29.89,West,270,1.7,1.7,67,0.00,,---,0.00,VWS V14.00,2013-08-04 15:49:00,
2013-08-04 11:54:00,90.6,78.6,29.90,WNW,292,4.4,4.4,68,0.00,,---,0.00,VWS V14.00,2013-08-04 15:54:00,
2013-08-04 11:59:00,90.6,78.6,29.89,WNW,292,2.4,2.4,68,0.00,,---,0.00,VWS V14.00,2013-08-04 15:59:00,
2013-08-04 12:04:00,90.6,78.6,29.89,NW,315,1.7,1.7,68,0.00,,---,0.00,VWS V14.00,2013-08-04 16:04:00,
2013-08-04 12:09:00,90.6,78.1,29.89,NNW,338,5.1,5.1,67,0.00,,---,0.00,VWS V14.00,2013-08-04 16:09:00,
2013-08-04 12:14:00,90.5,78.5,29.88,West,270,0.8,0.8,68,0.00,,---,0.00,VWS V14.00,2013-08-04 16:14:00,
2013-08-04 12:19:00,90.1,77.7,29.89,WNW,292,4.9,4.9,67,0.00,,---,0.00,VWS V14.00,2013-08-04 16:19:00,
2013-08-04 12:24:00,89.6,77.6,29.89,West,270,2.2,2.2,68,0.00,,---,0.00,VWS V14.00,2013-08-04 16:24:00,
2013-08-04 12:29:00,89.4,77.9,29.88,WNW,292,0.0,0.0,69,0.00,,---,0.00,VWS V14.00,2013-08-04 16:29:00,
2013-08-04 12:34:00,89.4,77.9,29.88,WNW,292,1.3,1.3,69,0.00,,---,0.00,VWS V14.00,2013-08-04 16:34:00,
2013-08-04 12:39:00,89.7,78.2,29.88,WNW,292,5.8,5.8,69,0.00,,---,0.00,VWS V14.00,2013-08-04 16:39:00,
2013-08-04 12:44:00,89.7,78.2,29.88,WNW,292,5.1,5.1,69,0.00,,---,0.00,VWS V14.00,2013-08-04 16:44:00,
2013-08-04 12:49:00,89.7,77.7,29.87,WNW,292,4.4,4.4,68,0.00,,---,0.00,VWS V14.00,2013-08-04 16:49:00,
2013-08-04 12:54:00,90.1,78.6,29.87,WNW,292,1.3,1.3,69,0.00,,---,0.00,VWS V14.00,2013-08-04 16:54:00,
2013-08-04 12:59:00,90.1,78.6,29.87,West,270,0.0,0.0,69,0.00,,---,0.00,VWS V14.00,2013-08-04 16:59:00,
2013-08-04 13:04:00,90.3,78.8,29.87,WNW,292,8.7,8.7,69,0.00,,---,0.00,VWS V14.00,2013-08-04 17:04:00,
2013-08-04 13:09:00,90.3,78.3,29.87,WNW,292,5.5,5.5,68,0.00,,---,0.00,VWS V14.00,2013-08-04 17:09:00,
2013-08-04 13:14:00,90.3,77.9,29.87,WNW,292,2.9,2.9,67,0.00,,---,0.00,VWS V14.00,2013-08-04 17:14:00,
2013-08-04 13:19:00,90.5,77.6,29.87,West,270,2.6,2.6,66,0.00,,---,0.00,VWS V14.00,2013-08-04 17:19:00,
2013-08-04 13:24:00,90.6,78.1,29.86,NNE,22,0.0,0.0,67,0.00,,---,0.00,VWS V14.00,2013-08-04 17:24:00,
2013-08-04 13:29:00,91.2,77.8,29.86,West,270,4.6,4.6,65,0.00,,---,0.00,VWS V14.00,2013-08-04 17:29:00,
2013-08-04 13:34:00,91.5,79.0,29.86,WSW,248,3.1,3.1,67,0.00,,---,0.00,VWS V14.00,2013-08-04 17:34:00,
2013-08-04 13:39:00,92.1,79.1,29.87,NW,315,6.2,6.2,66,0.00,,---,0.00,VWS V14.00,2013-08-04 17:39:00,
2013-08-04 13:44:00,92.1,78.7,29.86,WNW,292,4.4,4.4,65,0.00,,---,0.00,VWS V14.00,2013-08-04 17:44:00,
2013-08-04 13:49:00,92.1,78.7,29.86,WNW,292,4.4,4.4,65,0.00,,---,0.00,VWS V14.00,2013-08-04 17:49:00,
2013-08-04 13:54:00,91.9,77.5,29.86,NW,315,3.8,3.8,63,0.00,,---,0.00,VWS V14.00,2013-08-04 17:54:00,
2013-08-04 13:59:00,92.1,77.7,29.85,NW,315,3.1,3.1,63,0.00,,---,0.00,VWS V14.00,2013-08-04 17:59:00,
2013-08-04 14:04:00,92.1,77.2,29.85,NW,315,1.1,1.1,62,0.00,,---,0.00,VWS V14.00,2013-08-04 18:04:00,
2013-08-04 14:09:00,92.1,78.2,29.85,NNW,338,4.4,4.4,64,0.00,,---,0.00,VWS V14.00,2013-08-04 18:09:00,
2013-08-04 14:14:00,91.5,78.5,29.85,WNW,292,4.2,4.2,66,0.00,,---,0.00,VWS V14.00,2013-08-04 18:14:00,
2013-08-04 14:19:00,91.2,78.3,29.85,WNW,292,4.0,4.0,66,0.00,,---,0.00,VWS V14.00,2013-08-04 18:19:00,
2013-08-04 14:24:00,90.6,77.7,29.85,NW,315,2.9,2.9,66,0.00,,---,0.00,VWS V14.00,2013-08-04 18:24:00,
2013-08-04 14:29:00,90.3,77.9,29.85,West,270,3.5,3.5,67,0.00,,---,0.00,VWS V14.00,2013-08-04 18:29:00,
2013-08-04 14:34:00,90.1,77.7,29.85,NW,315,0.0,0.0,67,0.00,,---,0.00,VWS V14.00,2013-08-04 18:34:00,
2013-08-04 14:39:00,90.5,78.1,29.84,West,270,3.3,3.3,67,0.00,,---,0.00,VWS V14.00,2013-08-04 18:39:00,
2013-08-04 14:44:00,91.0,78.1,29.84,West,270,0.0,0.0,66,0.00,,---,0.00,VWS V14.00,2013-08-04 18:44:00,
2013-08-04 14:49:00,91.5,78.5,29.84,NW,315,3.3,3.3,66,0.00,,---,0.00,VWS V14.00,2013-08-04 18:49:00,
2013-08-04 14:54:00,92.1,78.7,29.84,WNW,292,2.6,2.6,65,0.00,,---,0.00,VWS V14.00,2013-08-04 18:54:00,
2013-08-04 14:59:00,92.3,78.4,29.84,West,270,1.1,1.1,64,0.00,,---,0.00,VWS V14.00,2013-08-04 18:59:00,
2013-08-04 15:04:00,92.4,79.4,29.83,NW,315,0.8,0.8,66,0.00,,---,0.00,VWS V14.00,2013-08-04 19:04:00,
2013-08-04 15:09:00,92.1,78.7,29.83,NW,315,2.9,2.9,65,0.00,,---,0.00,VWS V14.00,2013-08-04 19:09:00,
2013-08-04 15:14:00,91.5,77.6,29.83,WNW,292,4.6,4.6,64,0.00,,---,0.00,VWS V14.00,2013-08-04 19:14:00,
2013-08-04 15:19:00,90.8,77.9,29.82,NE,45,0.0,0.0,66,0.00,,---,0.00,VWS V14.00,2013-08-04 19:19:00,
2013-08-04 15:24:00,90.6,77.2,29.82,NW,315,5.3,5.3,65,0.00,,---,0.00,VWS V14.00,2013-08-04 19:24:00,
2013-08-04 15:29:00,90.5,77.6,29.82,WNW,292,2.0,2.0,66,0.00,,---,0.00,VWS V14.00,2013-08-04 19:29:00,
2013-08-04 15:34:00,90.6,77.7,29.82,NNW,338,0.0,0.0,66,0.00,,---,0.00,VWS V14.00,2013-08-04 19:34:00,
2013-08-04 15:39:00,91.0,78.1,29.82,West,270,3.1,3.1,66,0.00,,---,0.00,VWS V14.00,2013-08-04 19:39:00,
2013-08-04 15:44:00,91.5,78.5,29.82,NW,315,2.6,2.6,66,0.00,,---,0.00,VWS V14.00,2013-08-04 19:44:00,
2013-08-04 15:49:00,91.7,78.3,29.82,NW,315,0.8,0.8,65,0.00,,---,0.00,VWS V14.00,2013-08-04 19:49:00,
2013-08-04 15:54:00,91.7,78.7,29.82,NW,315,2.4,2.4,66,0.00,,---,0.00,VWS V14.00,2013-08-04 19:54:00,
2013-08-04 15:58:00,91.9,78.9,29.82,WNW,292,0.0,0.0,66,0.00,,---,0.00,VWS V14.00,2013-08-04 19:58:00,
2013-08-04 16:04:00,91.7,78.3,29.82,West,270,1.5,1.5,65,0.00,,---,0.00,VWS V14.00,2013-08-04 20:04:00,
2013-08-04 16:09:00,91.7,78.7,29.82,NW,315,3.1,3.1,66,0.00,,---,0.00,VWS V14.00,2013-08-04 20:09:00,
2013-08-04 16:14:00,91.5,78.5,29.82,WNW,292,3.3,3.3,66,0.00,,---,0.00,VWS V14.00,2013-08-04 20:14:00,
2013-08-04 16:19:00,91.5,78.5,29.82,WNW,292,2.0,2.0,66,0.00,,---,0.00,VWS V14.00,2013-08-04 20:19:00,
2013-08-04 16:23:00,91.4,78.4,29.81,WNW,292,2.0,2.0,66,0.00,,---,0.00,VWS V14.00,2013-08-04 20:23:00,
2013-08-04 16:29:00,91.2,78.3,29.82,NW,315,2.4,2.4,66,0.00,,---,0.00,VWS V14.00,2013-08-04 20:29:00,
2013-08-04 16:34:00,91.2,78.3,29.82,WNW,292,0.0,0.0,66,0.00,,---,0.00,VWS V14.00,2013-08-04 20:34:00,
2013-08-04 16:39:00,91.2,78.7,29.82,WNW,292,2.4,2.4,67,0.00,,---,0.00,VWS V14.00,2013-08-04 20:39:00,
2013-08-04 16:44:00,91.2,78.3,29.82,NW,315,0.0,0.0,66,0.00,,---,0.00,VWS V14.00,2013-08-04 20:44:00,
2013-08-04 16:48:00,90.6,77.7,29.82,NW,315,2.0,2.0,66,0.00,,---,0.00,VWS V14.00,2013-08-04 20:48:00,
2013-08-04 16:54:00,90.3,77.9,29.82,NW,315,1.3,1.3,67,0.00,,---,0.00,VWS V14.00,2013-08-04 20:54:00,
2013-08-04 16:59:00,90.1,77.7,29.82,NW,315,2.9,2.9,67,0.00,,---,0.00,VWS V14.00,2013-08-04 20:59:00,
2013-08-04 17:04:00,89.9,77.5,29.82,West,270,4.4,4.4,67,0.00,,---,0.00,VWS V14.00,2013-08-04 21:04:00,
2013-08-04 17:08:00,89.6,77.2,29.82,WNW,292,2.6,2.6,67,0.00,,---,0.00,VWS V14.00,2013-08-04 21:08:00,
2013-08-04 17:14:00,89.4,77.0,29.82,NW,315,2.0,2.0,67,0.00,,---,0.00,VWS V14.00,2013-08-04 21:14:00,
2013-08-04 17:19:00,89.0,77.1,29.82,West,270,0.0,0.0,68,0.00,,---,0.00,VWS V14.00,2013-08-04 21:19:00,
2013-08-04 17:24:00,88.8,77.3,29.82,NW,315,1.1,1.1,69,0.00,,---,0.00,VWS V14.00,2013-08-04 21:24:00,
2013-08-04 17:28:00,88.5,77.0,29.82,WNW,292,1.3,1.3,69,0.00,,---,0.00,VWS V14.00,2013-08-04 21:28:00,
2013-08-04 17:33:00,88.3,77.3,29.82,NNW,338,1.1,1.1,70,0.00,,---,0.00,VWS V14.00,2013-08-04 21:33:00,
2013-08-04 17:38:00,88.1,77.1,29.82,NW,315,3.1,3.1,70,0.00,,---,0.00,VWS V14.00,2013-08-04 21:38:00,
2013-08-04 17:43:00,87.9,77.3,29.82,WNW,292,1.3,1.3,71,0.00,,---,0.00,VWS V14.00,2013-08-04 21:43:00,
2013-08-04 17:48:00,87.6,77.0,29.82,NW,315,0.0,0.0,71,0.00,,---,0.00,VWS V14.00,2013-08-04 21:48:00,
2013-08-04 17:49:00,87.6,77.0,29.82,NW,315,0.0,0.0,71,0.00,,---,0.00,VWS V14.00,2013-08-04 21:49:00,
2013-08-04 17:53:00,87.6,77.0,29.82,NNE,22,0.0,0.0,71,0.00,,---,0.00,VWS V14.00,2013-08-04 21:53:00,
2013-08-04 17:59:00,87.6,77.0,29.81,NW,315,0.0,0.0,71,0.00,,---,0.00,VWS V14.00,2013-08-04 21:59:00,
2013-08-04 18:03:00,87.6,77.0,29.82,NW,315,0.0,0.0,71,0.00,,---,0.00,VWS V14.00,2013-08-04 22:03:00,
2013-08-04 18:09:00,87.6,77.0,29.81,NNW,338,0.0,0.0,71,0.00,,---,0.00,VWS V14.00,2013-08-04 22:09:00,
2013-08-04 18:14:00,87.6,77.0,29.81,NW,315,0.0,0.0,71,0.00,,---,0.00,VWS V14.00,2013-08-04 22:14:00,
2013-08-04 18:18:00,87.6,77.5,29.81,WNW,292,0.0,0.0,72,0.00,,---,0.00,VWS V14.00,2013-08-04 22:18:00,
2013-08-04 18:23:00,87.6,77.5,29.81,NNW,338,0.0,0.0,72,0.00,,---,0.00,VWS V14.00,2013-08-04 22:23:00,
2013-08-04 18:29:00,87.4,76.8,29.82,NW,315,1.5,1.5,71,0.00,,---,0.00,VWS V14.00,2013-08-04 22:29:00,
2013-08-04 18:34:00,87.0,76.0,29.82,NW,315,0.0,0.0,70,0.00,,---,0.00,VWS V14.00,2013-08-04 22:34:00,
2013-08-04 18:39:00,87.0,76.0,29.82,WNW,292,0.0,0.0,70,0.00,,---,0.00,VWS V14.00,2013-08-04 22:39:00,
2013-08-04 18:44:00,87.0,76.5,29.82,WNW,292,0.0,0.0,71,0.00,,---,0.00,VWS V14.00,2013-08-04 22:44:00,
2013-08-04 18:48:00,87.0,76.5,29.82,WNW,292,0.0,0.0,71,0.00,,---,0.00,VWS V14.00,2013-08-04 22:48:00,
2013-08-04 18:54:00,87.0,76.9,29.82,WNW,292,0.0,0.0,72,0.00,,---,0.00,VWS V14.00,2013-08-04 22:54:00,
2013-08-04 18:59:00,87.0,77.3,29.82,NW,315,0.0,0.0,73,0.00,,---,0.00,VWS V14.00,2013-08-04 22:59:00,
2013-08-04 19:04:00,87.2,77.1,29.82,NW,315,0.0,0.0,72,0.00,,---,0.00,VWS V14.00,2013-08-04 23:04:00,
2013-08-04 19:08:00,87.4,77.3,29.82,NW,315,0.0,0.0,72,0.00,,---,0.00,VWS V14.00,2013-08-04 23:08:00,
2013-08-04 19:13:00,88.3,78.1,29.82,WNW,292,0.0,0.0,72,0.00,,---,0.00,VWS V14.00,2013-08-04 23:13:00,
2013-08-04 19:18:00,89.6,78.1,29.82,NW,315,0.0,0.0,69,0.00,,---,0.00,VWS V14.00,2013-08-04 23:18:00,
2013-08-04 19:23:00,90.6,78.6,29.82,NW,315,0.0,0.0,68,0.00,,---,0.00,VWS V14.00,2013-08-04 23:23:00,
2013-08-04 19:28:00,90.3,77.9,29.82,WNW,292,0.0,0.0,67,0.00,,---,0.00,VWS V14.00,2013-08-04 23:28:00,
2013-08-04 19:33:00,89.7,77.7,29.82,WNW,292,1.5,1.5,68,0.00,,---,0.00,VWS V14.00,2013-08-04 23:33:00,
2013-08-04 19:38:00,89.7,77.3,29.82,West,270,0.8,0.8,67,0.00,,---,0.00,VWS V14.00,2013-08-04 23:38:00,
2013-08-04 19:43:00,89.4,77.4,29.82,NNW,338,2.4,2.4,68,0.00,,---,0.00,VWS V14.00,2013-08-04 23:43:00,
2013-08-04 19:48:00,88.7,76.8,29.82,West,270,0.0,0.0,68,0.00,,---,0.00,VWS V14.00,2013-08-04 23:48:00,
2013-08-04 19:53:00,88.1,76.7,29.82,West,270,0.0,0.0,69,0.00,,---,0.00,VWS V14.00,2013-08-04 23:53:00,
2013-08-04 19:58:00,87.6,76.6,29.83,NW,315,0.0,0.0,70,0.00,,---,0.00,VWS V14.00,2013-08-04 23:58:00,
2013-08-04 20:03:00,87.4,76.8,29.83,NW,315,0.0,0.0,71,0.00,,---,0.00,VWS V14.00,2013-08-05 00:03:00,
2013-08-04 20:08:00,86.9,76.4,29.82,NW,315,0.0,0.0,71,0.00,,---,0.00,VWS V14.00,2013-08-05 00:08:00,
2013-08-04 20:13:00,86.7,76.6,29.82,WNW,292,0.0,0.0,72,0.00,,---,0.00,VWS V14.00,2013-08-05 00:13:00,
2013-08-04 20:18:00,86.5,76.8,29.82,NW,315,0.0,0.0,73,0.00,,---,0.00,VWS V14.00,2013-08-05 00:18:00,
2013-08-04 20:23:00,86.1,76.8,29.83,NW,315,0.0,0.0,74,0.00,,---,0.00,VWS V14.00,2013-08-05 00:23:00,
2013-08-04 20:28:00,85.8,76.6,29.83,WNW,292,0.0,0.0,74,0.00,,---,0.00,VWS V14.00,2013-08-05 00:28:00,
2013-08-04 20:33:00,85.8,76.6,29.83,NW,315,0.0,0.0,74,0.00,,---,0.00,VWS V14.00,2013-08-05 00:33:00,
2013-08-04 20:38:00,85.8,76.6,29.83,NW,315,0.0,0.0,74,0.00,,---,0.00,VWS V14.00,2013-08-05 00:38:00,
2013-08-04 20:43:00,85.6,76.4,29.83,WNW,292,0.0,0.0,74,0.00,,---,0.00,VWS V14.00,2013-08-05 00:43:00,
2013-08-04 20:48:00,85.4,76.2,29.83,WNW,292,2.0,2.0,74,0.00,,---,0.00,VWS V14.00,2013-08-05 00:48:00,
2013-08-04 20:53:00,85.2,76.0,29.83,WNW,292,0.0,0.0,74,0.00,,---,0.00,VWS V14.00,2013-08-05 00:53:00,
2013-08-04 20:58:00,85.2,76.0,29.83,WNW,292,0.0,0.0,74,0.00,,---,0.00,VWS V14.00,2013-08-05 00:58:00,
2013-08-04 21:03:00,85.2,76.0,29.83,WNW,292,0.0,0.0,74,0.00,,---,0.00,VWS V14.00,2013-08-05 01:03:00,
2013-08-04 21:08:00,85.1,75.9,29.83,WNW,292,0.0,0.0,74,0.00,,---,0.00,VWS V14.00,2013-08-05 01:08:00,
2013-08-04 21:13:00,84.9,75.7,29.83,West,270,0.0,0.0,74,0.00,,---,0.00,VWS V14.00,2013-08-05 01:13:00,
2013-08-04 21:18:00,84.9,76.1,29.84,West,270,0.0,0.0,75,0.00,,---,0.00,VWS V14.00,2013-08-05 01:18:00,
2013-08-04 21:23:00,84.7,75.9,29.84,West,270,0.0,0.0,75,0.00,,---,0.00,VWS V14.00,2013-08-05 01:23:00,
2013-08-04 21:28:00,84.7,76.3,29.84,West,270,0.0,0.0,76,0.00,,---,0.00,VWS V14.00,2013-08-05 01:28:00,
2013-08-04 21:33:00,84.7,76.3,29.84,West,270,0.0,0.0,76,0.00,,---,0.00,VWS V14.00,2013-08-05 01:33:00,
2013-08-04 21:38:00,84.7,76.3,29.84,West,270,0.0,0.0,76,0.00,,---,0.00,VWS V14.00,2013-08-05 01:38:00,
2013-08-04 21:43:00,84.5,76.5,29.84,West,270,0.0,0.0,77,0.00,,---,0.00,VWS V14.00,2013-08-05 01:43:00,
2013-08-04 21:48:00,84.5,76.5,29.84,West,270,0.0,0.0,77,0.00,,---,0.00,VWS V14.00,2013-08-05 01:48:00,
2013-08-04 21:53:00,84.3,76.3,29.85,West,270,0.0,0.0,77,0.00,,---,0.00,VWS V14.00,2013-08-05 01:53:00,
2013-08-04 21:58:00,84.3,76.3,29.85,WNW,292,0.0,0.0,77,0.00,,---,0.00,VWS V14.00,2013-08-05 01:58:00,
2013-08-04 22:03:00,84.3,76.3,29.85,WNW,292,0.0,0.0,77,0.00,,---,0.00,VWS V14.00,2013-08-05 02:03:00,
2013-08-04 22:08:00,84.3,76.3,29.84,WNW,292,0.0,0.0,77,0.00,,---,0.00,VWS V14.00,2013-08-05 02:08:00,
2013-08-04 22:13:00,84.3,76.3,29.84,WNW,292,0.0,0.0,77,0.00,,---,0.00,VWS V14.00,2013-08-05 02:13:00,
2013-08-04 22:18:00,84.3,76.3,29.85,WNW,292,0.0,0.0,77,0.00,,---,0.00,VWS V14.00,2013-08-05 02:18:00,
2013-08-04 22:23:00,84.3,76.3,29.84,WNW,292,0.0,0.0,77,0.00,,---,0.00,VWS V14.00,2013-08-05 02:23:00,
2013-08-04 22:28:00,84.5,76.5,29.85,WNW,292,0.0,0.0,77,0.00,,---,0.00,VWS V14.00,2013-08-05 02:28:00,
2013-08-04 22:33:00,84.5,76.5,29.85,NW,315,0.0,0.0,77,0.00,,---,0.00,VWS V14.00,2013-08-05 02:33:00,
2013-08-04 22:38:00,84.3,76.3,29.84,NW,315,0.0,0.0,77,0.00,,---,0.00,VWS V14.00,2013-08-05 02:38:00,
2013-08-04 22:43:00,84.3,76.7,29.85,West,270,0.0,0.0,78,0.00,,---,0.00,VWS V14.00,2013-08-05 02:43:00,
2013-08-04 22:48:00,84.3,76.7,29.85,West,270,0.0,0.0,78,0.00,,---,0.00,VWS V14.00,2013-08-05 02:48:00,
2013-08-04 22:53:00,84.0,76.4,29.85,West,270,0.0,0.0,78,0.00,,---,0.00,VWS V14.00,2013-08-05 02:53:00,
2013-08-04 22:58:00,84.0,76.8,29.85,West,270,0.0,0.0,79,0.00,,---,0.00,VWS V14.00,2013-08-05 02:58:00,
2013-08-04 23:03:00,84.0,76.8,29.85,West,270,0.0,0.0,79,0.00,,---,0.00,VWS V14.00,2013-08-05 03:03:00,
2013-08-04 23:08:00,84.0,76.8,29.85,West,270,0.0,0.0,79,0.00,,---,0.00,VWS V14.00,2013-08-05 03:08:00,
2013-08-04 23:13:00,83.8,76.6,29.85,WSW,248,0.0,0.0,79,0.00,,---,0.00,VWS V14.00,2013-08-05 03:13:00,
2013-08-04 23:18:00,83.8,76.6,29.85,West,270,0.0,0.0,79,0.00,,---,0.00,VWS V14.00,2013-08-05 03:18:00,
2013-08-04 23:23:00,83.6,76.4,29.85,West,270,0.0,0.0,79,0.00,,---,0.00,VWS V14.00,2013-08-05 03:23:00,
2013-08-04 23:28:00,83.4,76.2,29.86,West,270,0.0,0.0,79,0.00,,---,0.00,VWS V14.00,2013-08-05 03:28:00,
2013-08-04 23:33:00,83.4,76.2,29.85,West,270,0.0,0.0,79,0.00,,---,0.00,VWS V14.00,2013-08-05 03:33:00,
2013-08-04 23:38:00,83.4,76.2,29.85,West,270,0.0,0.0,79,0.00,,---,0.00,VWS V14.00,2013-08-05 03:38:00,
2013-08-04 23:43:00,83.4,76.2,29.85,WNW,292,0.0,0.0,79,0.00,,---,0.00,VWS V14.00,2013-08-05 03:43:00,
2013-08-04 23:48:00,83.4,76.2,29.85,WNW,292,0.0,0.0,79,0.00,,---,0.00,VWS V14.00,2013-08-05 03:48:00,
2013-08-04 23:53:00,83.4,76.2,29.85,NW,315,0.0,0.0,79,0.00,,---,0.00,VWS V14.00,2013-08-05 03:53:00,
2013-08-04 23:58:00,83.3,76.1,29.85,NW,315,0.0,0.0,79,0.00,,---,0.00,VWS V14.00,2013-08-05 03:58:00,